Time;durP1;ratioP1;P1;durP2;ratioP2;P2;SDS_P1;SDS_P2;PMS_P1;PMS_P2;Temp;Humidity;BMP_temperature;BMP_pressure;BME280_temperature;BME280_humidity;BME280_pressure;Samples;Min_cycle;Max_cycle;Signal;HPM_P1;HPM_P2
2021/03/04 00:01:07;;;;;;;37.97;22.38;;;;;;;6.68;51.67;95640.06;5097224;23;20025;-85
2021/03/04 00:03:09;;;;;;;39.85;21.65;;;;;;;6.71;51.43;95638.06;5096171;23;20033;-85
2021/03/04 00:05:12;;;;;;;36.33;21.55;;;;;;;6.72;51.25;95639.72;5129156;23;20024;-85
2021/03/04 00:07:13;;;;;;;39.78;21.52;;;;;;;6.73;50.71;95635.31;5074953;23;20022;-85
2021/03/04 00:09:14;;;;;;;32.30;19.92;;;;;;;6.75;50.38;95629.09;5092307;23;20032;-86
2021/03/04 00:11:15;;;;;;;32.38;19.65;;;;;;;6.75;50.44;95629.09;5092797;23;20060;-84
2021/03/04 00:13:16;;;;;;;32.55;19.48;;;;;;;6.74;50.02;95632.63;5118233;23;20035;-84
2021/03/04 00:15:20;;;;;;;32.25;18.90;;;;;;;6.64;50.57;95630.78;5119198;23;20031;-85
2021/03/04 00:17:21;;;;;;;36.47;18.17;;;;;;;6.44;50.68;95635.69;5119652;23;20351;-83
2021/03/04 00:19:23;;;;;;;34.88;17.88;;;;;;;6.11;50.55;95623.31;5121304;23;20021;-84
2021/03/04 00:21:24;;;;;;;31.85;15.95;;;;;;;5.63;52.30;95629.19;5117963;23;20478;-85
2021/03/04 00:23:25;;;;;;;32.05;16.63;;;;;;;5.31;52.70;95616.66;5118396;23;20029;-86
2021/03/04 00:25:31;;;;;;;32.03;17.98;;;;;;;5.11;54.50;95617.16;5117801;23;20402;-85
2021/03/04 00:27:32;;;;;;;29.55;17.35;;;;;;;5.05;54.05;95625.38;5091838;23;20025;-84
2021/03/04 00:29:33;;;;;;;25.33;15.68;;;;;;;5.26;53.70;95618.72;5118489;23;20107;-83
2021/03/04 00:31:35;;;;;;;35.13;18.30;;;;;;;5.52;52.94;95616.94;5092338;23;20097;-84
2021/03/04 00:33:36;;;;;;;31.05;18.83;;;;;;;5.78;52.55;95618.69;5094301;23;20104;-85
2021/03/04 00:35:37;;;;;;;29.33;17.02;;;;;;;5.98;52.17;95610.34;5068845;23;20025;-86
2021/03/04 00:37:39;;;;;;;28.90;17.10;;;;;;;6.13;51.66;95605.81;5120273;23;20021;-87
2021/03/04 00:39:40;;;;;;;30.35;16.63;;;;;;;6.26;51.00;95608.38;5095182;23;20022;-87
2021/03/04 00:41:41;;;;;;;28.98;17.52;;;;;;;6.34;50.43;95611.25;5094422;23;20320;-87
2021/03/04 00:43:42;;;;;;;28.95;16.52;;;;;;;6.35;50.36;95598.13;5092204;23;20051;-86
2021/03/04 00:45:43;;;;;;;26.88;17.00;;;;;;;6.39;50.44;95603.09;5090787;23;20021;-84
2021/03/04 00:47:45;;;;;;;33.45;17.95;;;;;;;6.42;49.95;95595.91;5116998;23;20542;-85
2021/03/04 00:49:46;;;;;;;30.10;17.20;;;;;;;6.25;50.18;95591.09;5091669;23;20061;-85
2021/03/04 00:51:47;;;;;;;34.10;18.27;;;;;;;6.15;50.93;95590.91;5091588;23;20025;-84
2021/03/04 00:53:49;;;;;;;27.63;18.27;;;;;;;6.20;50.75;95586.25;5094110;23;20021;-85
2021/03/04 00:55:50;;;;;;;27.42;16.83;;;;;;;6.17;50.80;95598.63;5127088;23;20025;-84
2021/03/04 00:57:51;;;;;;;30.15;17.73;;;;;;;6.07;50.56;95591.50;5101004;23;20028;-84
2021/03/04 00:59:52;;;;;;;28.48;17.63;;;;;;;5.88;51.06;95591.94;5119074;23;20020;-85
2021/03/04 01:01:53;;;;;;;26.35;16.05;;;;;;;5.84;51.35;95581.84;5118026;23;20390;-85
2021/03/04 01:03:55;;;;;;;28.63;17.00;;;;;;;5.80;51.74;95588.22;5118461;23;20040;-85
2021/03/04 01:05:56;;;;;;;31.30;17.70;;;;;;;5.69;51.83;95581.97;5091998;23;20060;-85
2021/03/04 01:07:57;;;;;;;32.72;17.75;;;;;;;5.66;51.51;95576.19;5094588;23;20100;-86
2021/03/04 01:09:58;;;;;;;30.20;17.77;;;;;;;5.67;51.83;95570.88;5094873;23;20103;-86
2021/03/04 01:11:59;;;;;;;30.88;17.08;;;;;;;5.66;52.04;95574.41;5122886;23;20027;-85
2021/03/04 01:14:01;;;;;;;29.50;17.77;;;;;;;5.69;52.18;95571.59;5094796;23;20032;-84
2021/03/04 01:16:03;;;;;;;26.73;15.75;;;;;;;5.72;51.96;95570.53;5092499;23;20056;-85
2021/03/04 01:18:05;;;;;;;30.63;18.73;;;;;;;5.78;51.77;95564.09;5098189;23;20026;-85
2021/03/04 01:20:09;;;;;;;26.85;17.77;;;;;;;5.71;51.58;95564.50;5099608;23;20032;-85
2021/03/04 01:22:10;;;;;;;30.55;18.02;;;;;;;5.60;51.98;95559.25;5114116;23;20532;-84
2021/03/04 01:24:11;;;;;;;32.47;18.25;;;;;;;5.54;52.52;95557.06;5123105;23;20025;-82
2021/03/04 01:26:12;;;;;;;32.30;18.38;;;;;;;5.64;52.11;95555.50;5124385;23;20025;-86
2021/03/04 01:28:14;;;;;;;30.00;17.30;;;;;;;5.74;52.43;95546.13;5122485;23;20020;-85
2021/03/04 01:30:16;;;;;;;30.13;16.83;;;;;;;5.82;51.36;95542.94;5121297;23;20382;-84
2021/03/04 01:32:17;;;;;;;32.60;17.83;;;;;;;5.87;51.81;95540.03;5119925;23;20426;-85
2021/03/04 01:34:18;;;;;;;29.50;17.58;;;;;;;5.93;51.38;95539.59;5095468;23;20102;-83
2021/03/04 01:36:19;;;;;;;30.08;17.35;;;;;;;5.98;51.62;95534.06;5147785;23;20027;-85
2021/03/04 01:38:21;;;;;;;30.27;17.83;;;;;;;6.03;51.49;95534.59;5148901;23;20072;-84
2021/03/04 01:40:22;;;;;;;24.80;16.08;;;;;;;6.09;51.13;95527.19;5122604;23;20029;-83
2021/03/04 01:42:23;;;;;;;24.38;15.13;;;;;;;6.12;50.25;95526.94;5150336;23;20024;-82
2021/03/04 01:44:25;;;;;;;23.92;13.82;;;;;;;6.15;50.16;95518.94;5103676;23;20037;-83
2021/03/04 01:46:26;;;;;;;27.80;15.95;;;;;;;6.12;50.48;95518.31;5127296;23;20032;-82
2021/03/04 01:48:27;;;;;;;27.10;17.30;;;;;;;6.11;51.35;95514.06;5150685;23;20095;-85
2021/03/04 01:50:30;;;;;;;27.40;16.73;;;;;;;6.08;51.99;95517.69;5125711;23;20516;-82
2021/03/04 01:52:32;;;;;;;26.63;16.80;;;;;;;6.05;51.27;95520.53;5154583;23;20024;-84
2021/03/04 01:54:33;;;;;;;26.50;16.95;;;;;;;6.03;51.50;95516.38;5163713;23;20048;-86
2021/03/04 01:56:35;;;;;;;27.23;16.05;;;;;;;5.99;51.60;95512.34;5138846;23;20036;-84
2021/03/04 01:58:36;;;;;;;32.00;15.57;;;;;;;5.88;51.38;95510.50;5104923;23;20024;-86
2021/03/04 02:00:37;;;;;;;25.55;15.45;;;;;;;5.82;51.50;95516.94;5148514;23;20354;-89
2021/03/04 02:02:39;;;;;;;25.05;14.05;;;;;;;5.74;51.47;95511.47;5145132;23;20020;-87
2021/03/04 02:04:40;;;;;;;26.10;15.88;;;;;;;5.65;51.34;95499.94;5094192;23;20021;-85
2021/03/04 02:06:59;;;;;;;27.90;15.77;;;;;;;5.65;52.29;95506.94;5119623;23;20037;-83
2021/03/04 02:09:01;;;;;;;25.50;15.43;;;;;;;5.70;52.07;95512.63;5145241;23;20020;-85
2021/03/04 02:11:34;;;;;;;27.13;14.43;;;;;;;5.69;51.58;95506.59;5122845;23;20025;-84
2021/03/04 02:14:08;;;;;;;23.00;14.30;;;;;;;5.65;51.92;95514.72;5153530;23;20039;-84
2021/03/04 02:16:22;;;;;;;26.17;13.80;;;;;;;5.63;51.68;95511.41;5074908;23;20075;-85
2021/03/04 02:18:46;;;;;;;23.88;14.27;;;;;;;5.63;51.95;95512.22;5120776;23;20020;-84
2021/03/04 02:21:15;;;;;;;22.23;13.77;;;;;;;5.57;51.42;95502.28;5117202;23;20021;-84
2021/03/04 02:23:41;;;;;;;20.98;12.48;;;;;;;5.40;51.72;95513.88;5118532;23;20358;-85
2021/03/04 02:25:58;;;;;;;22.13;12.95;;;;;;;5.09;52.51;95513.38;5143335;23;20032;-84
2021/03/04 02:28:00;;;;;;;22.65;13.55;;;;;;;4.73;54.14;95511.53;5120550;23;20399;-83
2021/03/04 02:30:11;;;;;;;24.48;13.95;;;;;;;4.71;54.17;95513.38;5121492;23;20025;-86
2021/03/04 02:32:14;;;;;;;21.65;13.32;;;;;;;4.77;54.29;95502.59;5091794;23;20138;-85
2021/03/04 02:34:16;;;;;;;23.63;14.27;;;;;;;4.89;53.97;95501.75;5131183;23;20031;-85
2021/03/04 02:36:18;;;;;;;22.10;12.98;;;;;;;5.02;54.31;95503.53;5161530;23;20108;-84
2021/03/04 02:38:20;;;;;;;20.98;12.95;;;;;;;5.11;54.12;95502.88;5157721;23;20023;-86
2021/03/04 02:40:23;;;;;;;21.50;13.18;;;;;;;5.21;53.23;95501.31;5119994;23;20079;-86
2021/03/04 02:42:26;;;;;;;25.58;15.05;;;;;;;5.24;53.31;95503.69;5117996;23;20411;-82
2021/03/04 02:44:27;;;;;;;21.63;12.87;;;;;;;5.23;53.47;95507.25;5117234;23;20453;-84
2021/03/04 02:46:31;;;;;;;24.25;13.70;;;;;;;5.32;52.76;95498.81;5143485;23;20036;-86
2021/03/04 02:48:33;;;;;;;22.95;13.25;;;;;;;5.39;52.96;95506.16;5117330;23;20088;-85
2021/03/04 02:50:35;;;;;;;22.83;13.45;;;;;;;5.40;53.02;95497.44;5118181;23;20513;-83
2021/03/04 02:52:37;;;;;;;26.60;14.68;;;;;;;5.45;52.78;95500.56;5143429;23;20024;-84
2021/03/04 02:54:39;;;;;;;22.40;13.93;;;;;;;5.47;53.29;95501.28;5143258;23;20071;-86
2021/03/04 02:56:42;;;;;;;20.98;14.25;;;;;;;5.50;53.07;95503.63;5116326;23;20020;-71
2021/03/04 02:58:44;;;;;;;26.77;13.95;;;;;;;5.49;53.18;95500.22;5139759;23;20027;-71
2021/03/04 03:00:47;;;;;;;22.80;14.05;;;;;;;5.48;52.83;95500.31;5113163;23;20407;-70
2021/03/04 03:02:49;;;;;;;24.05;15.30;;;;;;;5.44;53.20;95493.69;5137884;23;20071;-71
2021/03/04 03:04:51;;;;;;;26.25;14.30;;;;;;;5.39;53.16;95508.78;5089160;23;20025;-69
2021/03/04 03:06:53;;;;;;;22.65;14.45;;;;;;;5.25;53.49;95505.38;5112475;23;20099;-70
2021/03/04 03:08:55;;;;;;;27.20;14.73;;;;;;;5.15;53.61;95506.94;5113305;23;20482;-70
2021/03/04 03:10:56;;;;;;;23.65;13.80;;;;;;;5.05;54.10;95506.72;5125015;23;20028;-83
2021/03/04 03:12:58;;;;;;;21.00;13.15;;;;;;;4.91;53.94;95505.09;5121436;23;20047;-83
2021/03/04 03:15:00;;;;;;;21.45;12.70;;;;;;;4.71;54.23;95503.84;5117963;23;20525;-83
2021/03/04 03:17:02;;;;;;;20.50;12.65;;;;;;;4.75;54.17;95504.47;5112749;23;20033;-71
2021/03/04 03:19:06;;;;;;;25.00;12.43;;;;;;;4.74;54.46;95497.63;5138915;23;20025;-70
2021/03/04 03:21:08;;;;;;;20.50;11.65;;;;;;;4.78;54.54;95504.28;5135728;23;20024;-71
2021/03/04 03:23:09;;;;;;;20.70;12.10;;;;;;;4.76;53.77;95498.34;5088966;23;20339;-71
2021/03/04 03:25:11;;;;;;;23.52;13.25;;;;;;;4.74;54.08;95496.81;5114277;23;20076;-73
2021/03/04 03:27:12;;;;;;;21.70;12.65;;;;;;;4.72;53.69;95491.69;5088634;23;20035;-69
2021/03/04 03:29:14;;;;;;;24.25;12.30;;;;;;;4.62;54.98;95488.88;5114396;23;20068;-71
2021/03/04 03:31:17;;;;;;;22.60;12.55;;;;;;;4.58;54.72;95486.59;5086778;23;20029;-70
2021/03/04 03:33:19;;;;;;;25.95;13.30;;;;;;;4.64;54.69;95491.38;5088271;23;20026;-70
2021/03/04 03:35:21;;;;;;;23.13;12.80;;;;;;;4.69;54.09;95482.38;5064100;23;20022;-69
2021/03/04 03:37:23;;;;;;;25.20;14.02;;;;;;;4.69;55.19;95490.16;5063623;23;20104;-70
2021/03/04 03:39:24;;;;;;;28.00;14.93;;;;;;;4.73;55.45;95482.97;5114384;23;20029;-70
2021/03/04 03:41:25;;;;;;;26.58;14.57;;;;;;;4.80;55.22;95481.63;5088164;23;20049;-70
2021/03/04 03:43:26;;;;;;;33.58;16.23;;;;;;;4.84;55.64;95483.09;5088578;23;20030;-70
2021/03/04 03:45:33;;;;;;;29.17;15.73;;;;;;;4.87;55.86;95488.06;5087340;23;20044;-72
2021/03/04 03:47:35;;;;;;;29.48;17.65;;;;;;;4.86;55.50;95486.41;5086615;23;20029;-71
2021/03/04 03:49:55;;;;;;;31.17;18.08;;;;;;;4.85;55.74;95489.09;5091600;23;20017;-69
2021/03/04 03:51:59;;;;;;;30.10;17.58;;;;;;;4.79;55.29;95485.16;5088749;23;20029;-71
2021/03/04 03:54:03;;;;;;;30.67;16.85;;;;;;;4.79;55.29;95485.16;5087320;23;20260;-69
2021/03/04 03:56:04;;;;;;;30.40;18.13;;;;;;;4.80;55.52;95484.22;5114893;23;20091;-70
2021/03/04 03:58:06;;;;;;;35.63;18.25;;;;;;;4.79;55.76;95479.97;5063401;23;20049;-70
2021/03/04 04:00:08;;;;;;;37.78;18.17;;;;;;;4.80;54.98;95481.63;5113748;23;20032;-70
2021/03/04 04:02:10;;;;;;;34.15;19.10;;;;;;;4.84;55.07;95477.91;5111755;23;20056;-71
2021/03/04 04:04:11;;;;;;;36.55;17.67;;;;;;;4.86;55.64;95476.03;5114737;23;20510;-70
2021/03/04 04:06:12;;;;;;;35.25;16.52;;;;;;;4.81;54.91;95478.09;5088209;23;20483;-71
2021/03/04 04:08:14;;;;;;;25.00;14.90;;;;;;;4.84;55.17;95482.22;5114493;23;20028;-70
2021/03/04 04:10:15;;;;;;;29.13;14.02;;;;;;;4.83;54.29;95478.00;5113040;23;20095;-70
2021/03/04 04:12:16;;;;;;;25.70;14.60;;;;;;;4.84;53.63;95477.91;5063788;23;20033;-69
2021/03/04 04:14:18;;;;;;;23.65;13.48;;;;;;;4.84;54.02;95471.84;5112391;23;20513;-70
2021/03/04 04:16:19;;;;;;;24.13;13.25;;;;;;;4.75;53.99;95469.88;5086032;23;20029;-70
2021/03/04 04:18:22;;;;;;;23.58;13.60;;;;;;;4.55;54.66;95473.84;5088757;23;20025;-71
2021/03/04 04:20:25;;;;;;;27.20;13.32;;;;;;;4.43;54.89;95472.88;5064440;23;20045;-71
2021/03/04 04:22:26;;;;;;;22.50;12.50;;;;;;;4.39;54.60;95471.44;5108545;23;20073;-71
2021/03/04 04:24:28;;;;;;;21.08;13.52;;;;;;;4.42;55.04;95468.66;5111872;23;20025;-71
2021/03/04 04:26:29;;;;;;;27.55;13.68;;;;;;;4.45;55.12;95464.09;5138374;23;20024;-70
2021/03/04 04:28:30;;;;;;;26.58;13.82;;;;;;;4.48;54.96;95470.84;5138217;23;20394;-72
2021/03/04 04:30:31;;;;;;;20.75;13.13;;;;;;;4.48;54.89;95463.06;5138404;23;20355;-71
2021/03/04 04:32:33;;;;;;;25.10;13.32;;;;;;;4.51;54.32;95466.25;5137275;23;20423;-70
2021/03/04 04:34:34;;;;;;;27.27;13.43;;;;;;;4.55;54.42;95460.88;5138086;23;20036;-71
2021/03/04 04:36:35;;;;;;;24.08;12.93;;;;;;;4.59;54.34;95459.72;5139411;23;20085;-71
2021/03/04 04:38:36;;;;;;;28.33;13.50;;;;;;;4.56;54.90;95454.72;5112335;23;20021;-69
2021/03/04 04:40:38;;;;;;;25.20;13.18;;;;;;;4.57;54.31;95446.84;5111674;23;20032;-70
2021/03/04 04:42:39;;;;;;;26.95;14.10;;;;;;;4.60;54.63;95453.59;5138851;23;20551;-71
2021/03/04 04:44:40;;;;;;;24.48;13.95;;;;;;;4.57;54.81;95444.25;5139867;23;20456;-71
2021/03/04 04:46:41;;;;;;;24.65;13.80;;;;;;;4.57;55.45;95446.03;5110208;23;20021;-71
2021/03/04 04:48:43;;;;;;;34.97;14.80;;;;;;;4.60;55.56;95448.41;5138540;23;20504;-73
2021/03/04 04:50:45;;;;;;;25.92;13.52;;;;;;;4.62;55.22;95439.56;5140168;23;20099;-69
2021/03/04 04:52:47;;;;;;;27.52;16.23;;;;;;;4.68;54.95;95438.34;5138354;23;20028;-72
2021/03/04 04:54:48;;;;;;;27.40;16.58;;;;;;;4.67;55.05;95434.09;5138166;23;20036;-71
2021/03/04 04:56:49;;;;;;;46.40;19.33;;;;;;;4.66;55.36;95435.84;5112747;23;20024;-70
2021/03/04 04:58:50;;;;;;;34.45;19.02;;;;;;;4.70;56.25;95433.88;5138126;23;20021;-71
2021/03/04 05:00:51;;;;;;;32.97;19.58;;;;;;;4.65;56.04;95425.59;5138814;23;20055;-71
2021/03/04 05:02:53;;;;;;;28.98;19.02;;;;;;;4.68;55.74;95435.75;5138259;23;20028;-70
2021/03/04 05:04:54;;;;;;;30.85;19.08;;;;;;;4.65;55.92;95428.19;5139191;23;20024;-72
2021/03/04 05:06:55;;;;;;;34.22;20.52;;;;;;;4.65;55.80;95430.78;5113241;23;20033;-71
2021/03/04 05:08:56;;;;;;;38.13;21.67;;;;;;;4.65;55.78;95420.38;5138911;23;20115;-73
2021/03/04 05:11:00;;;;;;;34.85;19.52;;;;;;;4.63;55.77;95427.44;5138911;23;20028;-72
2021/03/04 05:13:01;;;;;;;36.47;20.35;;;;;;;4.64;56.29;95421.31;5138480;23;20025;-70
2021/03/04 05:15:07;;;;;;;38.83;19.58;;;;;;;4.73;56.21;95418.06;5138651;23;20100;-71
2021/03/04 05:17:08;;;;;;;41.80;19.90;;;;;;;4.78;55.64;95426.41;5137665;23;20405;-70
2021/03/04 05:19:10;;;;;;;37.40;20.13;;;;;;;4.81;55.30;95418.38;5137667;23;20016;-74
2021/03/04 05:21:11;;;;;;;40.65;19.70;;;;;;;4.83;55.86;95428.66;5135002;23;20529;-71
2021/03/04 05:23:13;;;;;;;39.55;19.77;;;;;;;4.85;55.34;95419.00;5113753;23;20036;-71
2021/03/04 05:25:14;;;;;;;34.85;20.58;;;;;;;4.78;55.42;95418.59;5113985;23;20032;-72
2021/03/04 05:27:15;;;;;;;40.97;20.52;;;;;;;4.81;56.06;95425.34;5087564;23;20026;-70
2021/03/04 05:29:16;;;;;;;42.58;21.88;;;;;;;4.84;55.10;95425.97;5088364;23;20031;-71
2021/03/04 05:31:17;;;;;;;41.47;22.25;;;;;;;4.86;55.50;95424.09;5110909;23;20025;-72
2021/03/04 05:33:20;;;;;;;41.00;22.75;;;;;;;4.90;54.87;95414.31;5114146;23;20087;-71
2021/03/04 05:35:21;;;;;;;42.72;22.00;;;;;;;4.96;54.93;95418.25;5088252;23;20021;-71
2021/03/04 05:37:23;;;;;;;40.03;21.58;;;;;;;4.96;54.86;95410.47;5063473;23;20032;-71
2021/03/04 05:39:24;;;;;;;40.38;21.95;;;;;;;4.99;55.54;95410.25;5088425;23;20022;-71
2021/03/04 05:41:25;;;;;;;111.05;62.47;;;;;;;5.07;55.45;95408.75;5087000;23;20177;-71
2021/03/04 05:43:27;;;;;;;103.95;57.72;;;;;;;5.05;56.00;95407.22;5114201;23;20458;-70
2021/03/04 05:45:29;;;;;;;54.35;30.65;;;;;;;5.12;54.74;95403.28;5111966;23;20021;-72
2021/03/04 05:47:31;;;;;;;48.33;26.70;;;;;;;5.17;55.14;95411.56;5061841;23;20039;-72
2021/03/04 05:49:47;;;;;;;58.60;31.15;;;;;;;5.23;54.62;95405.94;5112692;23;20021;-72
2021/03/04 05:51:49;;;;;;;52.67;27.90;;;;;;;5.27;54.40;95402.19;5087448;23;20510;-71
2021/03/04 05:53:54;;;;;;;57.72;28.20;;;;;;;5.30;54.80;95409.75;5086752;23;20208;-74
2021/03/04 05:55:55;;;;;;;54.38;30.08;;;;;;;5.24;54.89;95412.78;5087709;23;20041;-71
2021/03/04 05:57:57;;;;;;;54.70;28.80;;;;;;;5.11;54.50;95415.41;5063271;23;20026;-72
2021/03/04 05:59:59;;;;;;;52.15;29.02;;;;;;;5.11;55.10;95409.38;5114825;23;20352;-71
2021/03/04 06:02:04;;;;;;;60.58;30.30;;;;;;;5.20;54.73;95420.91;5085795;23;20061;-72
2021/03/04 06:04:05;;;;;;;58.38;29.35;;;;;;;5.28;54.49;95405.59;5087828;23;20029;-74
2021/03/04 06:06:07;;;;;;;58.20;31.55;;;;;;;5.27;54.72;95412.56;5087967;23;20394;-71
2021/03/04 06:08:08;;;;;;;66.47;31.88;;;;;;;5.20;54.43;95411.31;5113643;23;20025;-72
2021/03/04 06:10:11;;;;;;;57.83;30.25;;;;;;;5.27;54.34;95407.38;5114105;23;20033;-73
2021/03/04 06:12:12;;;;;;;52.13;30.77;;;;;;;5.34;53.98;95405.16;5113722;23;20215;-72
2021/03/04 06:14:15;;;;;;;65.60;32.03;;;;;;;5.21;54.69;95402.63;5114503;23;20439;-72
2021/03/04 06:16:16;;;;;;;64.72;31.65;;;;;;;5.07;54.99;95400.16;5113200;23;20029;-72
2021/03/04 06:18:17;;;;;;;74.45;33.17;;;;;;;5.04;55.42;95401.22;5114409;23;20025;-71
2021/03/04 06:20:19;;;;;;;69.95;32.40;;;;;;;5.16;55.52;95398.66;5115827;23;20438;-72
2021/03/04 06:22:27;;;;;;;55.00;33.20;;;;;;;5.20;55.07;95405.31;5114256;23;20025;-70
2021/03/04 06:24:28;;;;;;;59.17;32.75;;;;;;;5.25;54.61;95404.06;5088215;23;20025;-71
2021/03/04 06:26:37;;;;;;;68.63;32.25;;;;;;;5.33;54.28;95413.88;5115304;23;20021;-73
2021/03/04 06:28:38;;;;;;;63.55;33.17;;;;;;;5.38;54.44;95404.00;5089715;23;20025;-74
2021/03/04 06:30:41;;;;;;;82.10;32.35;;;;;;;5.53;53.57;95404.69;5088095;23;20061;-73
2021/03/04 06:32:57;;;;;;;65.95;32.97;;;;;;;5.73;53.64;95400.63;5114000;23;20025;-70
2021/03/04 06:35:13;;;;;;;60.05;30.52;;;;;;;5.84;53.07;95408.47;5114958;23;20635;-72
2021/03/04 06:37:14;;;;;;;61.08;32.53;;;;;;;5.91;52.74;95407.06;5089186;23;20720;-71
2021/03/04 06:39:15;;;;;;;68.50;32.40;;;;;;;5.97;52.34;95402.41;5089349;23;20021;-72
2021/03/04 06:41:18;;;;;;;70.25;33.95;;;;;;;6.08;52.40;95405.84;5113918;23;20028;-72
2021/03/04 06:43:21;;;;;;;82.18;44.85;;;;;;;6.12;52.80;95406.44;5115301;23;20032;-74
2021/03/04 06:45:32;;;;;;;74.85;37.72;;;;;;;6.13;52.36;95400.28;5088262;23;20029;-73
2021/03/04 06:47:33;;;;;;;64.82;35.58;;;;;;;6.23;52.51;95403.03;5113964;23;20025;-75
2021/03/04 06:49:41;;;;;;;66.22;34.20;;;;;;;6.35;53.02;95404.72;5115897;23;20546;-73
2021/03/04 06:51:44;;;;;;;77.35;34.63;;;;;;;6.47;51.77;95405.56;5115149;23;20032;-74
2021/03/04 06:53:53;;;;;;;67.13;34.60;;;;;;;6.39;51.24;95402.72;5115158;23;20025;-74
2021/03/04 06:56:05;;;;;;;66.03;34.15;;;;;;;6.40;51.33;95401.78;5088826;23;20109;-75
2021/03/04 06:58:09;;;;;;;60.80;33.45;;;;;;;6.39;50.76;95400.09;5115891;23;20439;-72
2021/03/04 07:00:20;;;;;;;66.43;34.43;;;;;;;6.40;50.74;95397.41;5114289;23;20501;-74
2021/03/04 07:02:29;;;;;;;59.13;32.80;;;;;;;6.47;50.09;95398.56;5113213;23;20025;-74
2021/03/04 07:04:31;;;;;;;63.58;32.28;;;;;;;6.52;50.90;95391.25;5089051;23;20026;-71
2021/03/04 07:06:35;;;;;;;63.85;33.45;;;;;;;6.66;50.34;95391.97;5088488;23;20025;-72
2021/03/04 07:08:38;;;;;;;59.58;33.72;;;;;;;6.77;49.84;95389.38;5115547;23;20029;-72
2021/03/04 07:10:39;;;;;;;53.67;31.98;;;;;;;6.65;49.95;95390.34;5114356;23;20031;-73
2021/03/04 07:12:42;;;;;;;63.30;35.53;;;;;;;6.35;50.03;95389.94;5114738;23;20028;-73
2021/03/04 07:14:45;;;;;;;60.47;33.88;;;;;;;6.36;50.17;95388.16;5089457;23;20029;-74
2021/03/04 07:16:47;;;;;;;50.85;31.20;;;;;;;6.44;50.39;95387.59;5062037;23;20026;-75
2021/03/04 07:18:51;;;;;;;54.55;31.13;;;;;;;6.65;50.11;95387.72;5115983;23;20044;-88
2021/03/04 07:20:54;;;;;;;60.45;30.65;;;;;;;6.82;50.05;95379.44;5122859;23;20055;-86
2021/03/04 07:22:55;;;;;;;63.05;32.38;;;;;;;6.92;50.40;95382.97;5096534;23;20025;-87
2021/03/04 07:24:57;;;;;;;62.05;32.88;;;;;;;6.60;50.28;95377.66;5121467;23;20504;-86
2021/03/04 07:26:58;;;;;;;60.78;33.75;;;;;;;6.77;51.11;95373.75;5095935;23;20041;-87
2021/03/04 07:29:04;;;;;;;62.03;33.05;;;;;;;7.02;50.84;95372.66;5070211;23;20018;-87
2021/03/04 07:31:06;;;;;;;61.75;32.17;;;;;;;7.26;50.46;95364.66;5093701;23;20029;-86
2021/03/04 07:33:08;;;;;;;58.22;33.47;;;;;;;7.28;49.82;95368.00;5094119;23;20408;-87
2021/03/04 07:35:11;;;;;;;57.08;31.90;;;;;;;7.37;48.91;95362.03;5094398;23;20028;-87
2021/03/04 07:37:15;;;;;;;62.78;35.17;;;;;;;7.33;48.77;95365.81;5097095;23;20025;-90
2021/03/04 07:39:28;;;;;;;50.67;32.08;;;;;;;7.22;48.16;95358.03;5070473;23;20076;-86
2021/03/04 07:41:35;;;;;;;48.70;29.80;;;;;;;7.16;47.92;95348.09;5100528;23;20029;-85
2021/03/04 07:43:43;;;;;;;48.28;29.35;;;;;;;7.29;48.06;95354.03;5126871;23;20032;-87
2021/03/04 07:45:45;;;;;;;50.47;31.00;;;;;;;7.12;47.86;95351.91;5100064;23;20041;-86
2021/03/04 07:47:48;;;;;;;55.78;32.63;;;;;;;6.80;49.06;95344.03;5119669;23;20112;-90
2021/03/04 07:49:49;;;;;;;49.85;30.20;;;;;;;6.72;49.31;95344.63;5093585;23;20025;-88
2021/03/04 07:51:50;;;;;;;49.67;31.95;;;;;;;6.87;49.08;95334.81;5094431;23;20057;-86
2021/03/04 07:53:53;;;;;;;53.47;30.60;;;;;;;7.06;48.79;95339.38;5095606;23;20529;-87
2021/03/04 07:55:54;;;;;;;46.97;31.57;;;;;;;6.96;48.49;95336.66;5093827;23;20467;-89
2021/03/04 07:57:56;;;;;;;50.03;30.38;;;;;;;7.08;48.85;95332.28;5121792;23;20240;-88
2021/03/04 07:59:58;;;;;;;45.63;27.63;;;;;;;6.91;48.39;95331.84;5096355;23;20423;-85
2021/03/04 08:02:01;;;;;;;46.55;29.08;;;;;;;7.20;48.04;95328.69;5120362;23;20024;-87
2021/03/04 08:04:03;;;;;;;51.70;28.33;;;;;;;7.45;47.79;95324.94;5120130;23;20025;-89
2021/03/04 08:06:04;;;;;;;46.33;28.45;;;;;;;7.47;46.80;95320.41;5120167;23;20036;-88
2021/03/04 08:08:18;;;;;;;48.95;28.33;;;;;;;7.36;47.59;95316.06;5121673;23;20096;-86
2021/03/04 08:10:22;;;;;;;51.83;28.30;;;;;;;7.15;47.84;95315.19;5120138;23;20031;-87
2021/03/04 08:12:23;;;;;;;51.00;29.17;;;;;;;7.03;48.23;95327.41;5121070;23;20104;-86
2021/03/04 08:14:24;;;;;;;43.85;28.75;;;;;;;7.25;47.76;95315.28;5121723;23;20029;-85
2021/03/04 08:16:25;;;;;;;57.15;30.15;;;;;;;7.34;47.81;95315.38;5095493;23;20025;-86
2021/03/04 08:18:27;;;;;;;54.38;28.92;;;;;;;7.59;47.35;95308.16;5071393;23;20029;-88
2021/03/04 08:20:28;;;;;;;42.97;26.92;;;;;;;7.90;46.54;95311.69;5121793;23;20025;-87
2021/03/04 08:22:30;;;;;;;41.42;25.48;;;;;;;8.19;45.95;95306.63;5116238;23;20332;-72
2021/03/04 08:24:33;;;;;;;49.05;28.30;;;;;;;8.45;45.55;95306.22;5087699;23;20025;-72
2021/03/04 08:26:36;;;;;;;50.70;26.57;;;;;;;8.70;44.85;95298.91;5114135;23;20466;-73
2021/03/04 08:28:37;;;;;;;44.30;26.13;;;;;;;8.81;43.69;95306.63;5128626;23;20031;-86
2021/03/04 08:30:41;;;;;;;46.95;27.40;;;;;;;9.03;44.26;95295.13;5095916;23;20032;-86
2021/03/04 08:32:44;;;;;;;49.35;27.75;;;;;;;9.27;43.38;95289.53;5121760;23;20027;-86
2021/03/04 08:34:45;;;;;;;43.55;28.65;;;;;;;9.28;42.82;95291.16;5120679;23;20025;-85
2021/03/04 08:36:50;;;;;;;52.63;29.05;;;;;;;9.34;42.37;95292.41;5120727;23;20029;-87
2021/03/04 08:38:52;;;;;;;46.42;28.30;;;;;;;9.44;42.27;95288.00;5096508;23;20140;-87
2021/03/04 08:40:55;;;;;;;49.35;27.63;;;;;;;9.59;42.08;95285.78;5097473;23;20026;-86
2021/03/04 08:43:07;;;;;;;39.60;25.38;;;;;;;9.66;41.10;95281.69;5123664;23;20035;-86
2021/03/04 08:45:09;;;;;;;46.35;23.83;;;;;;;9.39;41.76;95282.38;5121471;23;20056;-85
2021/03/04 08:47:14;;;;;;;41.60;25.42;;;;;;;9.30;42.50;95281.41;5095224;23;20374;-86
2021/03/04 08:49:20;;;;;;;40.88;24.67;;;;;;;9.35;41.67;95268.72;5095776;23;20081;-87
2021/03/04 08:51:21;;;;;;;47.38;24.58;;;;;;;9.69;42.05;95272.72;5121962;23;20040;-84
2021/03/04 08:53:37;;;;;;;47.80;25.15;;;;;;;9.73;41.40;95271.47;5123419;23;20045;-85
2021/03/04 08:55:45;;;;;;;58.47;35.88;;;;;;;9.92;41.29;95270.63;5124332;23;20021;-86
2021/03/04 08:57:46;;;;;;;53.13;34.33;;;;;;;10.03;41.11;95266.03;5124402;23;20035;-85
2021/03/04 08:59:48;;;;;;;46.70;27.98;;;;;;;10.21;40.54;95255.66;5097155;23;20017;-86
2021/03/04 09:01:49;;;;;;;39.67;25.63;;;;;;;10.35;41.11;95256.22;5096780;23;20048;-86
2021/03/04 09:03:50;;;;;;;36.70;23.83;;;;;;;10.41;41.09;95253.84;5096022;23;20138;-84
2021/03/04 09:06:08;;;;;;;40.95;24.17;;;;;;;10.60;40.33;95244.22;5097042;23;20524;-88
2021/03/04 09:08:13;;;;;;;35.58;24.55;;;;;;;10.86;40.08;95245.19;5124201;23;20080;-88
2021/03/04 09:10:15;;;;;;;40.53;25.15;;;;;;;11.02;38.97;95239.28;5099515;23;20018;-87
2021/03/04 09:12:16;;;;;;;58.65;25.80;;;;;;;11.14;38.53;95241.69;5101437;23;20029;-85
2021/03/04 09:14:28;;;;;;;39.17;25.83;;;;;;;11.27;38.62;95231.63;5099420;23;20021;-85
2021/03/04 09:16:29;;;;;;;42.75;24.60;;;;;;;11.10;38.30;95229.84;5122326;23;20036;-88
2021/03/04 09:18:31;;;;;;;37.13;23.80;;;;;;;10.80;38.85;95229.22;5124768;23;20025;-87
2021/03/04 09:20:33;;;;;;;41.20;24.70;;;;;;;10.52;39.09;95228.41;5124190;23;20021;-86
2021/03/04 09:22:35;;;;;;;42.47;25.05;;;;;;;10.43;39.23;95230.94;5125982;23;20044;-85
2021/03/04 09:24:38;;;;;;;39.50;23.23;;;;;;;10.59;39.36;95222.44;5102502;23;20025;-86
2021/03/04 09:26:39;;;;;;;40.58;25.15;;;;;;;10.49;39.15;95231.31;5096968;23;20036;-86
2021/03/04 09:28:43;;;;;;;39.53;24.67;;;;;;;10.33;39.85;95224.09;5119970;23;20021;-85
2021/03/04 09:30:47;;;;;;;43.20;25.30;;;;;;;10.53;39.70;95211.72;5094024;23;20431;-89
2021/03/04 09:32:49;;;;;;;47.08;25.55;;;;;;;10.56;39.29;95209.66;5094182;23;20021;-87